sensor_id;sensor_type;location;lat;lon;timestamp;pressure;altitude;pressure_sealevel;temperature;humidity
40788;BME280;26497;52.494;7.546;2023-09-19T00:00:32;99893.63;;;20.75;73.61
40788;BME280;26497;52.494;7.546;2023-09-19T00:02:59;99893.41;;;20.80;72.08
40788;BME280;26497;52.494;7.546;2023-09-19T00:05:29;99903.78;;;20.86;72.84
40788;BME280;26497;52.494;7.546;2023-09-19T00:07:58;99906.47;;;21.02;72.07
40788;BME280;26497;52.494;7.546;2023-09-19T00:10:25;99917.19;;;21.02;71.33
40788;BME280;26497;52.494;7.546;2023-09-19T00:12:53;99919.63;;;21.06;71.19
40788;BME280;26497;52.494;7.546;2023-09-19T00:15:22;99916.84;;;21.08;71.28
40788;BME280;26497;52.494;7.546;2023-09-19T00:17:49;99928.59;;;20.72;71.36
40788;BME280;26497;52.494;7.546;2023-09-19T00:20:18;99922.09;;;20.77;71.66
40788;BME280;26497;52.494;7.546;2023-09-19T00:22:49;99935.34;;;20.63;71.54
40788;BME280;26497;52.494;7.546;2023-09-19T00:25:16;99934.63;;;20.59;71.23
40788;BME280;26497;52.494;7.546;2023-09-19T00:27:44;99946.88;;;20.47;72.61
40788;BME280;26497;52.494;7.546;2023-09-19T00:30:13;99940.69;;;20.47;71.43
40788;BME280;26497;52.494;7.546;2023-09-19T00:32:42;99947.25;;;20.57;71.45
40788;BME280;26497;52.494;7.546;2023-09-19T00:35:10;99945.41;;;20.75;71.27
40788;BME280;26497;52.494;7.546;2023-09-19T00:37:37;99949.53;;;20.65;71.58
40788;BME280;26497;52.494;7.546;2023-09-19T00:40:09;99961.78;;;20.53;72.33
40788;BME280;26497;52.494;7.546;2023-09-19T00:42:38;99956.59;;;20.32;73.32
40788;BME280;26497;52.494;7.546;2023-09-19T00:45:07;99964.31;;;20.21;73.30
40788;BME280;26497;52.494;7.546;2023-09-19T00:47:37;99961.16;;;19.95;74.31
40788;BME280;26497;52.494;7.546;2023-09-19T00:50:06;99969.00;;;19.81;74.70
40788;BME280;26497;52.494;7.546;2023-09-19T00:52:35;99967.41;;;19.77;74.46
40788;BME280;26497;52.494;7.546;2023-09-19T00:55:07;99977.63;;;19.68;75.19
40788;BME280;26497;52.494;7.546;2023-09-19T00:57:35;99977.25;;;19.76;74.97
40788;BME280;26497;52.494;7.546;2023-09-19T01:00:06;99994.00;;;19.80;75.08
40788;BME280;26497;52.494;7.546;2023-09-19T01:02:34;99992.75;;;19.87;74.71
40788;BME280;26497;52.494;7.546;2023-09-19T01:05:01;99993.22;;;19.78;75.48
40788;BME280;26497;52.494;7.546;2023-09-19T01:07:31;99996.34;;;19.68;75.76
40788;BME280;26497;52.494;7.546;2023-09-19T01:09:59;99995.69;;;19.63;75.73
40788;BME280;26497;52.494;7.546;2023-09-19T01:12:36;99997.53;;;19.63;75.36
40788;BME280;26497;52.494;7.546;2023-09-19T01:15:18;100003.06;;;19.77;75.04
40788;BME280;26497;52.494;7.546;2023-09-19T01:17:57;100004.94;;;19.75;74.43
40788;BME280;26497;52.494;7.546;2023-09-19T01:20:37;99995.25;;;19.72;74.35
40788;BME280;26497;52.494;7.546;2023-09-19T01:23:16;100001.19;;;19.60;73.80
40788;BME280;26497;52.494;7.546;2023-09-19T01:26:10;100004.16;;;19.73;73.42
40788;BME280;26497;52.494;7.546;2023-09-19T01:29:17;100000.59;;;19.72;72.60
40788;BME280;26497;52.494;7.546;2023-09-19T01:31:52;100015.25;;;19.83;71.46
40788;BME280;26497;52.494;7.546;2023-09-19T01:34:20;100021.25;;;19.88;70.75
40788;BME280;26497;52.494;7.546;2023-09-19T01:36:47;100015.06;;;19.87;70.21
40788;BME280;26497;52.494;7.546;2023-09-19T01:39:15;100011.06;;;19.96;69.20
40788;BME280;26497;52.494;7.546;2023-09-19T01:41:54;100019.81;;;19.81;69.57
40788;BME280;26497;52.494;7.546;2023-09-19T01:44:29;100013.53;;;19.82;69.67
40788;BME280;26497;52.494;7.546;2023-09-19T01:47:04;100021.03;;;19.93;69.08
40788;BME280;26497;52.494;7.546;2023-09-19T01:49:43;100024.28;;;19.99;68.77
40788;BME280;26497;52.494;7.546;2023-09-19T01:52:13;100025.41;;;19.76;69.12
40788;BME280;26497;52.494;7.546;2023-09-19T01:54:48;100022.50;;;19.81;68.92
40788;BME280;26497;52.494;7.546;2023-09-19T01:57:26;100025.97;;;19.83;68.77
40788;BME280;26497;52.494;7.546;2023-09-19T02:00:03;100026.00;;;19.64;69.24
40788;BME280;26497;52.494;7.546;2023-09-19T02:02:35;100018.19;;;19.59;69.39
40788;BME280;26497;52.494;7.546;2023-09-19T02:05:04;100022.31;;;19.66;69.22
40788;BME280;26497;52.494;7.546;2023-09-19T02:07:32;100018.69;;;19.67;68.84
40788;BME280;26497;52.494;7.546;2023-09-19T02:09:59;100021.66;;;19.61;69.47
40788;BME280;26497;52.494;7.546;2023-09-19T02:12:26;100026.72;;;19.67;69.17
40788;BME280;26497;52.494;7.546;2023-09-19T02:14:54;100024.41;;;19.40;70.00
40788;BME280;26497;52.494;7.546;2023-09-19T02:17:23;100036.13;;;19.38;70.00
40788;BME280;26497;52.494;7.546;2023-09-19T02:19:53;100031.06;;;19.32;70.64
40788;BME280;26497;52.494;7.546;2023-09-19T02:22:20;100036.34;;;19.14;71.21
40788;BME280;26497;52.494;7.546;2023-09-19T02:24:48;100029.34;;;19.11;71.10
40788;BME280;26497;52.494;7.546;2023-09-19T02:27:16;100033.66;;;19.14;71.27
40788;BME280;26497;52.494;7.546;2023-09-19T02:29:44;100043.03;;;19.23;70.78
40788;BME280;26497;52.494;7.546;2023-09-19T02:32:11;100038.44;;;19.26;70.43
40788;BME280;26497;52.494;7.546;2023-09-19T02:34:38;100041.50;;;19.19;70.48
40788;BME280;26497;52.494;7.546;2023-09-19T02:37:07;100038.16;;;19.13;70.99
40788;BME280;26497;52.494;7.546;2023-09-19T02:39:34;100043.00;;;19.05;70.82
40788;BME280;26497;52.494;7.546;2023-09-19T02:42:02;100038.31;;;18.90;71.54
40788;BME280;26497;52.494;7.546;2023-09-19T02:44:30;100039.09;;;18.92;71.78
40788;BME280;26497;52.494;7.546;2023-09-19T02:46:58;100051.53;;;18.93;72.01
40788;BME280;26497;52.494;7.546;2023-09-19T02:49:25;100047.81;;;18.95;72.21
40788;BME280;26497;52.494;7.546;2023-09-19T02:51:52;100047.25;;;18.89;72.61
40788;BME280;26497;52.494;7.546;2023-09-19T02:54:21;100047.44;;;18.84;73.31
40788;BME280;26497;52.494;7.546;2023-09-19T02:56:49;100047.13;;;18.92;73.07
40788;BME280;26497;52.494;7.546;2023-09-19T02:59:16;100039.00;;;18.93;73.11
40788;BME280;26497;52.494;7.546;2023-09-19T03:01:45;100043.41;;;18.94;73.61
40788;BME280;26497;52.494;7.546;2023-09-19T03:04:13;100028.97;;;19.00;73.24
40788;BME280;26497;52.494;7.546;2023-09-19T03:06:45;100037.31;;;18.71;74.58
40788;BME280;26497;52.494;7.546;2023-09-19T03:09:14;100050.88;;;18.88;74.36
40788;BME280;26497;52.494;7.546;2023-09-19T03:11:43;100043.41;;;18.94;73.86
40788;BME280;26497;52.494;7.546;2023-09-19T03:14:12;100046.88;;;18.98;73.48
40788;BME280;26497;52.494;7.546;2023-09-19T03:16:41;100068.22;;;18.77;74.41
40788;BME280;26497;52.494;7.546;2023-09-19T03:19:08;100062.06;;;18.96;73.80
40788;BME280;26497;52.494;7.546;2023-09-19T03:21:36;100065.72;;;18.93;73.69
40788;BME280;26497;52.494;7.546;2023-09-19T03:24:05;100066.53;;;18.95;73.14
40788;BME280;26497;52.494;7.546;2023-09-19T03:26:32;100059.81;;;18.86;73.53
40788;BME280;26497;52.494;7.546;2023-09-19T03:29:04;100077.63;;;18.86;74.00
40788;BME280;26497;52.494;7.546;2023-09-19T03:31:34;100069.44;;;18.91;73.32
40788;BME280;26497;52.494;7.546;2023-09-19T03:34:03;100069.84;;;19.02;72.90
40788;BME280;26497;52.494;7.546;2023-09-19T03:36:30;100068.63;;;18.89;73.14
40788;BME280;26497;52.494;7.546;2023-09-19T03:39:00;100067.81;;;18.86;73.45
40788;BME280;26497;52.494;7.546;2023-09-19T03:41:27;100064.88;;;18.93;73.07
40788;BME280;26497;52.494;7.546;2023-09-19T03:43:54;100077.09;;;18.78;73.67
40788;BME280;26497;52.494;7.546;2023-09-19T03:46:23;100073.31;;;18.63;74.55
40788;BME280;26497;52.494;7.546;2023-09-19T03:48:50;100082.44;;;18.57;75.01
40788;BME280;26497;52.494;7.546;2023-09-19T03:51:17;100083.59;;;18.72;74.28
40788;BME280;26497;52.494;7.546;2023-09-19T03:53:44;100070.56;;;18.64;74.59
40788;BME280;26497;52.494;7.546;2023-09-19T03:56:12;100065.28;;;18.63;74.53
40788;BME280;26497;52.494;7.546;2023-09-19T03:58:39;100083.59;;;18.72;74.04
40788;BME280;26497;52.494;7.546;2023-09-19T04:01:06;100077.16;;;18.55;74.85
40788;BME280;26497;52.494;7.546;2023-09-19T04:03:35;100079.84;;;18.76;73.83
40788;BME280;26497;52.494;7.546;2023-09-19T04:06:12;100063.34;;;18.66;74.08
40788;BME280;26497;52.494;7.546;2023-09-19T04:08:39;100071.41;;;18.44;75.13
40788;BME280;26497;52.494;7.546;2023-09-19T04:11:07;100072.09;;;18.49;75.02
40788;BME280;26497;52.494;7.546;2023-09-19T04:13:34;100063.75;;;18.36;75.23
40788;BME280;26497;52.494;7.546;2023-09-19T04:16:02;100075.16;;;18.40;75.29
40788;BME280;26497;52.494;7.546;2023-09-19T04:18:29;100084.84;;;18.42;74.85
40788;BME280;26497;52.494;7.546;2023-09-19T04:21:00;100088.25;;;18.46;74.31
40788;BME280;26497;52.494;7.546;2023-09-19T04:23:28;100089.56;;;18.36;74.40
40788;BME280;26497;52.494;7.546;2023-09-19T04:25:55;100094.56;;;18.23;74.78
40788;BME280;26497;52.494;7.546;2023-09-19T04:28:23;100091.97;;;17.97;76.43
40788;BME280;26497;52.494;7.546;2023-09-19T04:30:50;100090.91;;;17.79;76.95
40788;BME280;26497;52.494;7.546;2023-09-19T04:33:18;100095.81;;;17.90;76.35
40788;BME280;26497;52.494;7.546;2023-09-19T04:35:45;100102.13;;;18.11;75.05
40788;BME280;26497;52.494;7.546;2023-09-19T04:38:13;100094.53;;;18.01;75.07
40788;BME280;26497;52.494;7.546;2023-09-19T04:40:41;100095.09;;;17.87;75.62
40788;BME280;26497;52.494;7.546;2023-09-19T04:43:08;100106.25;;;17.96;74.98
40788;BME280;26497;52.494;7.546;2023-09-19T04:45:35;100111.03;;;17.88;75.35
40788;BME280;26497;52.494;7.546;2023-09-19T04:48:05;100115.56;;;17.86;75.40
40788;BME280;26497;52.494;7.546;2023-09-19T04:50:34;100121.94;;;17.82;75.44
40788;BME280;26497;52.494;7.546;2023-09-19T04:53:03;100125.44;;;17.84;74.90
40788;BME280;26497;52.494;7.546;2023-09-19T04:55:32;100134.94;;;17.67;75.48
40788;BME280;26497;52.494;7.546;2023-09-19T04:57:59;100128.69;;;17.68;75.54
40788;BME280;26497;52.494;7.546;2023-09-19T05:00:26;100124.53;;;17.61;76.01
40788;BME280;26497;52.494;7.546;2023-09-19T05:02:56;100140.03;;;17.74;75.33
40788;BME280;26497;52.494;7.546;2023-09-19T05:05:24;100141.56;;;17.81;75.15
40788;BME280;26497;52.494;7.546;2023-09-19T05:07:53;100142.53;;;17.78;74.55
40788;BME280;26497;52.494;7.546;2023-09-19T05:10:21;100138.78;;;17.60;75.01
40788;BME280;26497;52.494;7.546;2023-09-19T05:12:53;100140.97;;;17.49;75.65
40788;BME280;26497;52.494;7.546;2023-09-19T05:15:21;100147.22;;;17.72;74.52
40788;BME280;26497;52.494;7.546;2023-09-19T05:17:49;100138.09;;;17.55;74.72
40788;BME280;26497;52.494;7.546;2023-09-19T05:20:17;100150.00;;;17.45;74.80
40788;BME280;26497;52.494;7.546;2023-09-19T05:22:50;100149.25;;;17.41;74.75
40788;BME280;26497;52.494;7.546;2023-09-19T05:25:17;100146.22;;;17.50;73.77
40788;BME280;26497;52.494;7.546;2023-09-19T05:27:46;100138.75;;;17.36;73.89
40788;BME280;26497;52.494;7.546;2023-09-19T05:30:14;100146.19;;;17.52;73.19
40788;BME280;26497;52.494;7.546;2023-09-19T05:32:41;100141.66;;;17.54;72.72
40788;BME280;26497;52.494;7.546;2023-09-19T05:35:09;100145.19;;;17.54;72.02
40788;BME280;26497;52.494;7.546;2023-09-19T05:37:38;100139.81;;;17.56;71.86
40788;BME280;26497;52.494;7.546;2023-09-19T05:40:07;100142.03;;;17.68;71.01
40788;BME280;26497;52.494;7.546;2023-09-19T05:42:38;100147.97;;;17.75;70.60
40788;BME280;26497;52.494;7.546;2023-09-19T05:45:08;100154.06;;;17.79;70.07
40788;BME280;26497;52.494;7.546;2023-09-19T05:47:39;100150.94;;;17.67;69.81
40788;BME280;26497;52.494;7.546;2023-09-19T05:50:10;100152.69;;;17.68;69.47
40788;BME280;26497;52.494;7.546;2023-09-19T05:52:37;100150.34;;;17.83;68.93
40788;BME280;26497;52.494;7.546;2023-09-19T05:55:05;100152.56;;;17.72;68.79
40788;BME280;26497;52.494;7.546;2023-09-19T05:57:33;100159.53;;;17.76;68.52
40788;BME280;26497;52.494;7.546;2023-09-19T06:00:00;100165.53;;;18.05;67.57
40788;BME280;26497;52.494;7.546;2023-09-19T06:02:29;100169.00;;;18.07;67.17
40788;BME280;26497;52.494;7.546;2023-09-19T06:04:58;100180.69;;;18.26;66.24
40788;BME280;26497;52.494;7.546;2023-09-19T06:07:25;100175.44;;;18.25;66.20
40788;BME280;26497;52.494;7.546;2023-09-19T06:09:54;100173.28;;;18.11;66.17
40788;BME280;26497;52.494;7.546;2023-09-19T06:12:21;100150.44;;;18.04;66.83
40788;BME280;26497;52.494;7.546;2023-09-19T06:14:48;100163.31;;;18.38;65.86
40788;BME280;26497;52.494;7.546;2023-09-19T06:17:15;100153.31;;;18.44;65.79
40788;BME280;26497;52.494;7.546;2023-09-19T06:19:45;100153.63;;;19.01;62.27
40788;BME280;26497;52.494;7.546;2023-09-19T06:22:16;100152.13;;;19.73;60.74
40788;BME280;26497;52.494;7.546;2023-09-19T06:24:45;100156.56;;;20.67;56.86
40788;BME280;26497;52.494;7.546;2023-09-19T06:27:12;100156.75;;;21.50;54.80
40788;BME280;26497;52.494;7.546;2023-09-19T06:29:40;100160.56;;;22.12;52.72
40788;BME280;26497;52.494;7.546;2023-09-19T06:32:08;100168.34;;;22.79;49.43
40788;BME280;26497;52.494;7.546;2023-09-19T06:34:36;100169.44;;;23.36;48.54
40788;BME280;26497;52.494;7.546;2023-09-19T06:37:04;100182.59;;;24.13;45.88
40788;BME280;26497;52.494;7.546;2023-09-19T06:39:33;100178.56;;;24.34;44.18
40788;BME280;26497;52.494;7.546;2023-09-19T06:42:00;100190.72;;;24.26;43.87
40788;BME280;26497;52.494;7.546;2023-09-19T06:44:27;100185.09;;;24.02;45.47
40788;BME280;26497;52.494;7.546;2023-09-19T06:46:55;100193.38;;;23.99;45.04
40788;BME280;26497;52.494;7.546;2023-09-19T06:49:22;100202.22;;;23.72;45.04
40788;BME280;26497;52.494;7.546;2023-09-19T06:51:50;100205.25;;;22.61;46.90
40788;BME280;26497;52.494;7.546;2023-09-19T06:54:17;100213.31;;;22.13;48.98
40788;BME280;26497;52.494;7.546;2023-09-19T06:56:45;100207.09;;;21.45;50.65
40788;BME280;26497;52.494;7.546;2023-09-19T06:59:13;100210.91;;;21.41;51.31
40788;BME280;26497;52.494;7.546;2023-09-19T07:01:40;100209.97;;;21.76;51.29
40788;BME280;26497;52.494;7.546;2023-09-19T07:04:10;100199.97;;;21.95;51.22
40788;BME280;26497;52.494;7.546;2023-09-19T07:06:38;100201.69;;;22.13;49.83
40788;BME280;26497;52.494;7.546;2023-09-19T07:09:06;100204.81;;;22.05;49.85
40788;BME280;26497;52.494;7.546;2023-09-19T07:11:34;100211.56;;;22.60;49.34
40788;BME280;26497;52.494;7.546;2023-09-19T07:14:02;100210.59;;;23.22;47.09
40788;BME280;26497;52.494;7.546;2023-09-19T07:16:31;100203.47;;;23.66;46.31
40788;BME280;26497;52.494;7.546;2023-09-19T07:18:58;100206.13;;;23.23;46.19
40788;BME280;26497;52.494;7.546;2023-09-19T07:21:25;100199.72;;;23.69;45.89
40788;BME280;26497;52.494;7.546;2023-09-19T07:23:53;100210.88;;;24.48;44.14
40788;BME280;26497;52.494;7.546;2023-09-19T07:26:20;100195.16;;;24.82;42.61
40788;BME280;26497;52.494;7.546;2023-09-19T07:28:47;100199.00;;;25.31;41.57
40788;BME280;26497;52.494;7.546;2023-09-19T07:31:16;100207.41;;;25.27;41.69
40788;BME280;26497;52.494;7.546;2023-09-19T07:33:43;100213.47;;;25.69;40.77
40788;BME280;26497;52.494;7.546;2023-09-19T07:36:11;100208.09;;;24.90;41.85
40788;BME280;26497;52.494;7.546;2023-09-19T07:38:39;100207.75;;;24.54;42.98
40788;BME280;26497;52.494;7.546;2023-09-19T07:41:07;100197.03;;;23.69;44.56
40788;BME280;26497;52.494;7.546;2023-09-19T07:43:34;100209.50;;;22.96;46.65
40788;BME280;26497;52.494;7.546;2023-09-19T07:46:04;100210.94;;;22.71;47.98
40788;BME280;26497;52.494;7.546;2023-09-19T07:48:34;100214.44;;;22.09;49.63
40788;BME280;26497;52.494;7.546;2023-09-19T07:51:05;100214.66;;;22.04;50.42
40788;BME280;26497;52.494;7.546;2023-09-19T07:53:32;100213.38;;;22.12;50.00
40788;BME280;26497;52.494;7.546;2023-09-19T07:56:05;100207.75;;;22.16;49.86
40788;BME280;26497;52.494;7.546;2023-09-19T07:58:33;100214.44;;;23.04;49.60
40788;BME280;26497;52.494;7.546;2023-09-19T08:01:05;100196.44;;;23.93;46.72
40788;BME280;26497;52.494;7.546;2023-09-19T08:03:33;100214.31;;;23.65;47.02
40788;BME280;26497;52.494;7.546;2023-09-19T08:06:03;100206.69;;;24.29;45.06
40788;BME280;26497;52.494;7.546;2023-09-19T08:08:30;100208.25;;;24.19;44.66
40788;BME280;26497;52.494;7.546;2023-09-19T08:10:57;100203.16;;;24.14;45.06
40788;BME280;26497;52.494;7.546;2023-09-19T08:13:25;100220.22;;;24.42;44.07
40788;BME280;26497;52.494;7.546;2023-09-19T08:15:52;100206.97;;;24.39;44.27
40788;BME280;26497;52.494;7.546;2023-09-19T08:18:20;100207.97;;;23.95;45.89
40788;BME280;26497;52.494;7.546;2023-09-19T08:20:53;100212.13;;;23.57;46.03
40788;BME280;26497;52.494;7.546;2023-09-19T08:23:23;100209.25;;;23.46;47.08
40788;BME280;26497;52.494;7.546;2023-09-19T08:25:50;100213.06;;;23.41;46.60
40788;BME280;26497;52.494;7.546;2023-09-19T08:28:17;100216.53;;;23.44;47.52
40788;BME280;26497;52.494;7.546;2023-09-19T08:30:50;100215.88;;;23.69;46.90
40788;BME280;26497;52.494;7.546;2023-09-19T08:33:18;100219.69;;;23.36;47.16
40788;BME280;26497;52.494;7.546;2023-09-19T08:35:45;100221.03;;;23.43;47.47
40788;BME280;26497;52.494;7.546;2023-09-19T08:38:14;100218.66;;;23.53;47.43
40788;BME280;26497;52.494;7.546;2023-09-19T08:40:41;100224.97;;;23.37;47.97
40788;BME280;26497;52.494;7.546;2023-09-19T08:43:11;100224.50;;;23.45;48.06
40788;BME280;26497;52.494;7.546;2023-09-19T08:45:38;100222.91;;;23.57;47.26
40788;BME280;26497;52.494;7.546;2023-09-19T08:48:20;100234.91;;;23.80;47.43
40788;BME280;26497;52.494;7.546;2023-09-19T08:50:54;100228.56;;;23.81;47.10
40788;BME280;26497;52.494;7.546;2023-09-19T08:53:35;100230.13;;;24.00;46.88
40788;BME280;26497;52.494;7.546;2023-09-19T08:56:10;100223.53;;;24.33;46.01
40788;BME280;26497;52.494;7.546;2023-09-19T08:58:44;100225.09;;;23.94;46.44
40788;BME280;26497;52.494;7.546;2023-09-19T09:01:15;100234.53;;;24.15;46.29
40788;BME280;26497;52.494;7.546;2023-09-19T09:03:43;100228.19;;;24.17;45.94
40788;BME280;26497;52.494;7.546;2023-09-19T09:06:14;100226.06;;;23.64;46.66
40788;BME280;26497;52.494;7.546;2023-09-19T09:08:44;100220.97;;;23.59;46.40
40788;BME280;26497;52.494;7.546;2023-09-19T09:11:11;100211.25;;;23.85;46.14
40788;BME280;26497;52.494;7.546;2023-09-19T09:13:39;100214.97;;;24.26;46.28
40788;BME280;26497;52.494;7.546;2023-09-19T09:16:07;100220.47;;;24.25;45.58
40788;BME280;26497;52.494;7.546;2023-09-19T09:18:35;100207.34;;;24.88;43.72
40788;BME280;26497;52.494;7.546;2023-09-19T09:21:03;100213.56;;;25.16;43.04
40788;BME280;26497;52.494;7.546;2023-09-19T09:23:31;100217.25;;;25.41;42.86
40788;BME280;26497;52.494;7.546;2023-09-19T09:26:00;100221.03;;;25.64;42.34
40788;BME280;26497;52.494;7.546;2023-09-19T09:28:31;100215.19;;;25.96;41.14
40788;BME280;26497;52.494;7.546;2023-09-19T09:31:00;100223.22;;;26.09;41.14
40788;BME280;26497;52.494;7.546;2023-09-19T09:33:28;100217.34;;;26.41;40.61
40788;BME280;26497;52.494;7.546;2023-09-19T09:35:59;100214.28;;;26.70;39.56
40788;BME280;26497;52.494;7.546;2023-09-19T09:38:29;100217.63;;;26.49;39.69
40788;BME280;26497;52.494;7.546;2023-09-19T09:41:00;100208.00;;;26.70;38.40
40788;BME280;26497;52.494;7.546;2023-09-19T09:43:34;100217.50;;;26.27;39.48
40788;BME280;26497;52.494;7.546;2023-09-19T09:46:08;100215.81;;;26.00;39.20
40788;BME280;26497;52.494;7.546;2023-09-19T09:49:00;100219.69;;;26.09;39.57
40788;BME280;26497;52.494;7.546;2023-09-19T09:51:45;100203.19;;;26.62;38.16
40788;BME280;26497;52.494;7.546;2023-09-19T09:54:24;100217.28;;;26.54;38.71
40788;BME280;26497;52.494;7.546;2023-09-19T09:56:59;100214.47;;;27.04;37.28
40788;BME280;26497;52.494;7.546;2023-09-19T09:59:50;100214.84;;;26.62;37.47
40788;BME280;26497;52.494;7.546;2023-09-19T10:02:20;100226.94;;;26.70;37.33
40788;BME280;26497;52.494;7.546;2023-09-19T10:04:55;100219.41;;;26.38;38.51
40788;BME280;26497;52.494;7.546;2023-09-19T10:07:41;100227.00;;;25.82;38.82
40788;BME280;26497;52.494;7.546;2023-09-19T10:10:13;100197.19;;;26.08;38.29
40788;BME280;26497;52.494;7.546;2023-09-19T10:12:47;100223.88;;;26.13;38.27
40788;BME280;26497;52.494;7.546;2023-09-19T10:15:17;100219.69;;;26.09;39.52
40788;BME280;26497;52.494;7.546;2023-09-19T10:17:47;100223.44;;;25.69;38.82
40788;BME280;26497;52.494;7.546;2023-09-19T10:20:16;100219.97;;;26.30;39.50
40788;BME280;26497;52.494;7.546;2023-09-19T10:23:01;100221.88;;;26.65;37.68
40788;BME280;26497;52.494;7.546;2023-09-19T10:25:37;100208.09;;;26.57;37.18
40788;BME280;26497;52.494;7.546;2023-09-19T10:28:08;100214.69;;;26.77;37.81
40788;BME280;26497;52.494;7.546;2023-09-19T10:30:40;100208.50;;;26.88;37.82
40788;BME280;26497;52.494;7.546;2023-09-19T10:33:11;100215.03;;;26.97;38.14
40788;BME280;26497;52.494;7.546;2023-09-19T10:35:42;100214.13;;;27.20;37.39
40788;BME280;26497;52.494;7.546;2023-09-19T10:38:11;100211.66;;;27.17;36.80
40788;BME280;26497;52.494;7.546;2023-09-19T10:40:40;100212.31;;;26.97;38.25
40788;BME280;26497;52.494;7.546;2023-09-19T10:43:15;100213.91;;;27.46;36.57
40788;BME280;26497;52.494;7.546;2023-09-19T10:45:45;100213.84;;;27.93;36.27
40788;BME280;26497;52.494;7.546;2023-09-19T10:48:16;100207.03;;;27.99;35.89
40788;BME280;26497;52.494;7.546;2023-09-19T10:50:50;100223.94;;;27.69;35.79
40788;BME280;26497;52.494;7.546;2023-09-19T10:53:18;100205.66;;;27.36;35.41
40788;BME280;26497;52.494;7.546;2023-09-19T10:55:52;100219.28;;;27.23;36.53
40788;BME280;26497;52.494;7.546;2023-09-19T10:58:27;100207.94;;;27.65;36.09
40788;BME280;26497;52.494;7.546;2023-09-19T11:00:57;100197.38;;;26.79;36.41
40788;BME280;26497;52.494;7.546;2023-09-19T11:03:31;100213.75;;;27.14;37.25
40788;BME280;26497;52.494;7.546;2023-09-19T11:06:11;100206.34;;;27.51;36.19
40788;BME280;26497;52.494;7.546;2023-09-19T11:08:59;100217.25;;;27.03;36.21
40788;BME280;26497;52.494;7.546;2023-09-19T11:11:49;100209.06;;;26.56;36.75
40788;BME280;26497;52.494;7.546;2023-09-19T11:14:39;100208.81;;;25.84;37.76
40788;BME280;26497;52.494;7.546;2023-09-19T11:17:34;100217.94;;;25.57;38.96
40788;BME280;26497;52.494;7.546;2023-09-19T11:20:22;100214.16;;;25.73;39.49
40788;BME280;26497;52.494;7.546;2023-09-19T11:23:23;100207.09;;;26.58;37.93
40788;BME280;26497;52.494;7.546;2023-09-19T11:25:54;100208.19;;;27.15;38.02
40788;BME280;26497;52.494;7.546;2023-09-19T11:28:38;100201.44;;;27.10;36.49
40788;BME280;26497;52.494;7.546;2023-09-19T11:31:43;100198.50;;;27.13;36.96
40788;BME280;26497;52.494;7.546;2023-09-19T11:34:43;100204.81;;;27.47;35.75
40788;BME280;26497;52.494;7.546;2023-09-19T11:37:59;100199.94;;;27.52;34.76
40788;BME280;26497;52.494;7.546;2023-09-19T11:40:33;100187.19;;;26.59;35.07
40788;BME280;26497;52.494;7.546;2023-09-19T11:43:30;100183.34;;;26.26;36.07
40788;BME280;26497;52.494;7.546;2023-09-19T11:46:06;100197.31;;;26.19;36.64
40788;BME280;26497;52.494;7.546;2023-09-19T11:48:39;100180.44;;;26.64;35.38
40788;BME280;26497;52.494;7.546;2023-09-19T11:51:16;100177.53;;;27.50;34.97
40788;BME280;26497;52.494;7.546;2023-09-19T11:53:49;100171.88;;;27.76;34.81
40788;BME280;26497;52.494;7.546;2023-09-19T11:56:18;100174.69;;;27.75;34.57
40788;BME280;26497;52.494;7.546;2023-09-19T11:58:46;100189.41;;;27.36;34.89
40788;BME280;26497;52.494;7.546;2023-09-19T12:01:24;100191.38;;;27.34;35.55
40788;BME280;26497;52.494;7.546;2023-09-19T12:03:58;100177.06;;;27.21;36.06
40788;BME280;26497;52.494;7.546;2023-09-19T12:06:27;100178.59;;;26.89;36.30
40788;BME280;26497;52.494;7.546;2023-09-19T12:08:55;100177.31;;;26.46;36.96
40788;BME280;26497;52.494;7.546;2023-09-19T12:11:23;100176.19;;;26.73;36.68
40788;BME280;26497;52.494;7.546;2023-09-19T12:13:52;100170.28;;;27.04;37.37
40788;BME280;26497;52.494;7.546;2023-09-19T12:16:22;100155.88;;;27.50;36.29
40788;BME280;26497;52.494;7.546;2023-09-19T12:18:50;100160.41;;;27.61;35.72
40788;BME280;26497;52.494;7.546;2023-09-19T12:21:27;100173.09;;;27.49;36.03
40788;BME280;26497;52.494;7.546;2023-09-19T12:24:06;100172.28;;;26.53;37.18
40788;BME280;26497;52.494;7.546;2023-09-19T12:26:41;100180.66;;;26.13;37.93
40788;BME280;26497;52.494;7.546;2023-09-19T12:29:16;100170.94;;;26.10;38.35
40788;BME280;26497;52.494;7.546;2023-09-19T12:31:49;100164.19;;;26.29;38.52
40788;BME280;26497;52.494;7.546;2023-09-19T12:34:20;100161.88;;;26.60;38.00
40788;BME280;26497;52.494;7.546;2023-09-19T12:36:49;100167.47;;;26.21;38.21
40788;BME280;26497;52.494;7.546;2023-09-19T12:39:31;100151.53;;;25.92;38.60
40788;BME280;26497;52.494;7.546;2023-09-19T12:41:58;100159.81;;;26.02;38.80
40788;BME280;26497;52.494;7.546;2023-09-19T12:44:25;100158.00;;;26.02;38.87
40788;BME280;26497;52.494;7.546;2023-09-19T12:46:54;100158.84;;;26.03;39.57
40788;BME280;26497;52.494;7.546;2023-09-19T12:49:23;100156.34;;;26.13;39.23
40788;BME280;26497;52.494;7.546;2023-09-19T12:51:55;100149.38;;;25.97;39.32
40788;BME280;26497;52.494;7.546;2023-09-19T12:54:24;100155.72;;;25.20;40.10
40788;BME280;26497;52.494;7.546;2023-09-19T12:56:52;100153.22;;;25.17;40.30
40788;BME280;26497;52.494;7.546;2023-09-19T12:59:29;100160.22;;;25.20;40.96
40788;BME280;26497;52.494;7.546;2023-09-19T13:02:04;100144.59;;;24.58;41.82
40788;BME280;26497;52.494;7.546;2023-09-19T13:04:33;100155.03;;;24.23;42.80
40788;BME280;26497;52.494;7.546;2023-09-19T13:07:07;100150.47;;;23.96;43.57
40788;BME280;26497;52.494;7.546;2023-09-19T13:09:36;100149.94;;;24.18;43.26